Time;durP1;ratioP1;P1;durP2;ratioP2;P2;SDS_P1;SDS_P2;PMS_P1;PMS_P2;Temp;Humidity;BMP_temperature;BMP_pressure;BME280_temperature;BME280_humidity;BME280_pressure;Samples;Min_cycle;Max_cycle;Signal;HPM_P1;HPM_P2
2022/05/16 00:00:49;;;;;;;;;;;15.10;58.30;;;;;;5073303;28;19943;-58
2022/05/16 00:03:14;;;;;;;;;;;15.10;58.40;;;;;;5069474;28;19908;-57
2022/05/16 00:05:40;;;;;;;;;;;15.10;58.70;;;;;;5073891;28;19947;-57
2022/05/16 00:08:05;;;;;;;;;;;15.00;59.00;;;;;;5072937;28;19904;-58
2022/05/16 00:10:31;;;;;;;;;;;15.00;59.00;;;;;;5078720;28;19908;-58
2022/05/16 00:12:59;;;;;;;;;;;15.00;59.20;;;;;;5081142;28;19911;-57
2022/05/16 00:15:25;;;;;;;;;;;15.00;59.30;;;;;;5072818;28;20371;-57
2022/05/16 00:17:51;;;;;;;;;;;15.00;59.50;;;;;;5073129;28;19908;-57
2022/05/16 00:20:17;;;;;;;;;;;15.00;59.80;;;;;;5073059;28;19949;-57
2022/05/16 00:22:43;;;;;;;;;;;15.00;60.00;;;;;;5074174;28;19965;-58
2022/05/16 00:25:09;;;;;;;;;;;15.00;60.10;;;;;;5077843;28;20355;-57
2022/05/16 00:27:35;;;;;;;;;;;15.00;60.00;;;;;;5077988;28;19908;-58
2022/05/16 00:30:05;;;;;;;;;;;15.00;60.00;;;;;;5088377;28;19982;-57
2022/05/16 00:32:31;;;;;;;;;;;15.00;60.00;;;;;;5073145;28;19915;-57
2022/05/16 00:34:56;;;;;;;;;;;14.90;59.90;;;;;;5072688;28;19908;-57
2022/05/16 00:37:22;;;;;;;;;;;14.90;60.00;;;;;;5075920;28;19904;-58
2022/05/16 00:39:47;;;;;;;;;;;14.90;60.00;;;;;;5072826;28;19973;-58
2022/05/16 00:42:13;;;;;;;;;;;14.90;60.00;;;;;;5072289;28;20003;-58
2022/05/16 00:44:39;;;;;;;;;;;14.90;60.00;;;;;;5090533;28;20010;-57
2022/05/16 00:47:05;;;;;;;;;;;14.90;60.40;;;;;;5092746;28;19905;-57
2022/05/16 00:49:35;;;;;;;;;;;14.80;61.20;;;;;;5084014;28;19916;-57
2022/05/16 00:52:03;;;;;;;;;;;14.80;60.70;;;;;;5083212;28;19908;-57
2022/05/16 00:54:38;;;;;;;;;;;14.80;60.60;;;;;;5074621;28;19910;-57
2022/05/16 00:57:05;;;;;;;;;;;14.80;60.90;;;;;;5076157;28;19963;-57
2022/05/16 00:59:39;;;;;;;;;;;14.80;60.80;;;;;;5084427;28;20010;-58
2022/05/16 01:04:49;;;;;;;;;;;14.70;61.30;;;;;;5096478;28;19961;-58
2022/05/16 01:07:25;;;;;;;;;;;14.70;61.40;;;;;;5096492;28;20287;-58
2022/05/16 01:09:50;;;;;;;;;;;14.70;61.50;;;;;;5096199;28;19904;-57
2022/05/16 01:12:16;;;;;;;;;;;14.70;61.40;;;;;;5096167;28;19904;-58
2022/05/16 01:14:43;;;;;;;;;;;14.70;61.50;;;;;;5095291;28;19904;-57
2022/05/16 01:17:09;;;;;;;;;;;14.70;61.60;;;;;;5077286;28;19908;-58
2022/05/16 01:19:35;;;;;;;;;;;14.60;61.50;;;;;;5079555;28;20413;-57
2022/05/16 01:22:05;;;;;;;;;;;14.60;61.50;;;;;;5075646;28;20002;-57
2022/05/16 01:24:30;;;;;;;;;;;14.60;61.40;;;;;;5075915;28;20016;-58
2022/05/16 01:26:56;;;;;;;;;;;14.60;61.20;;;;;;5087278;28;19941;-57
2022/05/16 01:29:21;;;;;;;;;;;14.50;61.00;;;;;;5095987;28;20003;-58
2022/05/16 01:31:47;;;;;;;;;;;14.50;61.00;;;;;;5095861;28;20403;-58
2022/05/16 01:34:13;;;;;;;;;;;14.50;60.90;;;;;;5095205;28;20422;-57
2022/05/16 01:36:39;;;;;;;;;;;14.50;60.80;;;;;;5093588;28;19942;-58
2022/05/16 01:39:04;;;;;;;;;;;14.50;60.80;;;;;;5075389;28;19904;-57
2022/05/16 01:41:30;;;;;;;;;;;14.40;60.80;;;;;;5075454;28;19916;-57
2022/05/16 01:43:57;;;;;;;;;;;14.40;60.80;;;;;;5086787;28;20469;-57
2022/05/16 01:46:31;;;;;;;;;;;14.40;60.90;;;;;;5095502;28;19910;-57
2022/05/16 01:48:57;;;;;;;;;;;14.40;60.80;;;;;;5094898;28;19911;-58
2022/05/16 01:51:23;;;;;;;;;;;14.40;60.80;;;;;;5076331;28;20368;-58
2022/05/16 01:53:49;;;;;;;;;;;14.30;60.90;;;;;;5086615;28;20007;-57
2022/05/16 01:56:15;;;;;;;;;;;14.30;60.70;;;;;;5091986;28;19951;-57
2022/05/16 01:58:41;;;;;;;;;;;14.30;60.80;;;;;;5078115;28;20580;-58
2022/05/16 02:01:07;;;;;;;;;;;14.30;60.80;;;;;;5075030;28;19904;-57
2022/05/16 02:03:33;;;;;;;;;;;14.30;60.80;;;;;;5074974;28;19916;-57
2022/05/16 02:05:58;;;;;;;;;;;14.30;60.80;;;;;;5074388;28;19983;-58
2022/05/16 02:08:24;;;;;;;;;;;14.30;60.80;;;;;;5077175;28;20387;-58
2022/05/16 02:10:49;;;;;;;;;;;14.30;61.00;;;;;;5086971;28;19908;-57
2022/05/16 02:13:15;;;;;;;;;;;14.20;60.90;;;;;;5078578;28;20046;-57
2022/05/16 02:15:42;;;;;;;;;;;14.20;60.90;;;;;;5085769;28;20387;-58
2022/05/16 02:18:08;;;;;;;;;;;14.20;60.90;;;;;;5077403;28;20466;-57
2022/05/16 02:20:34;;;;;;;;;;;14.20;61.00;;;;;;5074903;28;19977;-57
2022/05/16 02:25:47;;;;;;;;;;;14.10;61.00;;;;;;5076098;28;19924;-58
2022/05/16 02:28:14;;;;;;;;;;;14.10;61.20;;;;;;5083608;28;20086;-57
2022/05/16 02:30:41;;;;;;;;;;;14.10;61.20;;;;;;5094778;28;19953;-58
2022/05/16 02:33:07;;;;;;;;;;;14.10;61.30;;;;;;5094697;28;19947;-58
2022/05/16 02:35:33;;;;;;;;;;;14.10;61.50;;;;;;5090445;28;19970;-58
2022/05/16 02:37:59;;;;;;;;;;;14.10;61.50;;;;;;5077980;28;20360;-57
2022/05/16 02:40:25;;;;;;;;;;;14.10;61.60;;;;;;5074416;28;19904;-57
2022/05/16 02:42:51;;;;;;;;;;;14.10;61.60;;;;;;5075098;28;20275;-58
2022/05/16 02:45:17;;;;;;;;;;;14.10;61.60;;;;;;5089897;28;19917;-57
2022/05/16 02:47:43;;;;;;;;;;;14.10;61.60;;;;;;5093651;28;20315;-57
2022/05/16 02:50:09;;;;;;;;;;;14.10;61.50;;;;;;5081072;28;19907;-58
2022/05/16 02:52:34;;;;;;;;;;;14.10;61.70;;;;;;5056116;28;20356;-58
2022/05/16 02:55:00;;;;;;;;;;;14.10;61.60;;;;;;5081619;28;19904;-57
2022/05/16 02:57:27;;;;;;;;;;;14.20;61.70;;;;;;5078179;28;19916;-57
2022/05/16 02:59:53;;;;;;;;;;;14.20;61.70;;;;;;5074876;28;19911;-58
2022/05/16 03:02:18;;;;;;;;;;;14.20;61.70;;;;;;5089307;28;19990;-58
2022/05/16 03:04:44;;;;;;;;;;;14.20;61.50;;;;;;5094067;28;19999;-58
2022/05/16 03:07:09;;;;;;;;;;;14.20;61.70;;;;;;5094146;28;20336;-58
2022/05/16 03:09:35;;;;;;;;;;;14.30;61.70;;;;;;5094160;28;19904;-57
2022/05/16 03:12:01;;;;;;;;;;;14.40;61.70;;;;;;5093871;28;19943;-57
2022/05/16 03:14:27;;;;;;;;;;;14.50;61.70;;;;;;5090190;28;20006;-58
2022/05/16 03:16:53;;;;;;;;;;;14.60;61.60;;;;;;5073398;28;19909;-58
2022/05/16 03:19:18;;;;;;;;;;;14.70;61.50;;;;;;5086393;28;19916;-57
2022/05/16 03:21:44;;;;;;;;;;;14.90;61.60;;;;;;5073448;28;19927;-58
2022/05/16 03:24:10;;;;;;;;;;;15.00;61.60;;;;;;5073233;28;19916;-57
2022/05/16 03:26:36;;;;;;;;;;;15.20;61.60;;;;;;5097856;28;19904;-58
2022/05/16 03:29:02;;;;;;;;;;;15.40;61.80;;;;;;5082757;28;19904;-58
2022/05/16 03:31:28;;;;;;;;;;;15.60;61.80;;;;;;5093925;28;19904;-57
2022/05/16 03:33:53;;;;;;;;;;;15.80;62.00;;;;;;5091249;28;19937;-57
2022/05/16 03:36:19;;;;;;;;;;;16.00;62.20;;;;;;5091383;28;19908;-58
2022/05/16 03:41:29;;;;;;;;;;;16.60;62.60;;;;;;5073340;28;19916;-57
2022/05/16 03:43:54;;;;;;;;;;;17.00;62.60;;;;;;5073046;28;19909;-58
2022/05/16 03:46:20;;;;;;;;;;;17.40;62.70;;;;;;5073428;28;19912;-57
2022/05/16 03:48:46;;;;;;;;;;;18.00;62.20;;;;;;5073334;28;19904;-58
2022/05/16 03:51:12;;;;;;;;;;;18.50;61.50;;;;;;5073557;28;19995;-58
2022/05/16 03:53:47;;;;;;;;;;;19.20;60.90;;;;;;5087696;28;19911;-58
2022/05/16 03:56:17;;;;;;;;;;;20.10;59.90;;;;;;5093504;28;20395;-58
2022/05/16 03:58:42;;;;;;;;;;;21.10;58.40;;;;;;5089600;28;19987;-58
2022/05/16 04:01:08;;;;;;;;;;;22.10;57.30;;;;;;5073204;28;19948;-57
2022/05/16 04:03:34;;;;;;;;;;;23.10;56.50;;;;;;5084072;28;19937;-58
2022/05/16 04:06:00;;;;;;;;;;;23.90;54.90;;;;;;5072973;28;19908;-58
2022/05/16 04:08:26;;;;;;;;;;;24.70;53.80;;;;;;5090014;28;20376;-58
2022/05/16 04:10:51;;;;;;;;;;;25.50;53.00;;;;;;5093584;28;19908;-58
2022/05/16 04:13:17;;;;;;;;;;;26.20;52.20;;;;;;5093036;28;19911;-58
2022/05/16 04:15:42;;;;;;;;;;;26.80;51.60;;;;;;5092852;28;19904;-58
2022/05/16 04:18:08;;;;;;;;;;;27.50;51.10;;;;;;5092370;28;19904;-59
2022/05/16 04:20:33;;;;;;;;;;;28.10;50.20;;;;;;5076591;28;19912;-58
2022/05/16 04:22:59;;;;;;;;;;;28.70;49.60;;;;;;5075748;28;20261;-58
2022/05/16 04:25:24;;;;;;;;;;;29.20;49.30;;;;;;5090017;28;19912;-58
2022/05/16 04:27:50;;;;;;;;;;;29.60;48.50;;;;;;5092767;28;19926;-58
2022/05/16 04:30:15;;;;;;;;;;;30.00;48.10;;;;;;5080711;28;20002;-58
2022/05/16 04:32:41;;;;;;;;;;;30.40;47.50;;;;;;5076630;28;19997;-58
2022/05/16 04:35:07;;;;;;;;;;;30.80;47.10;;;;;;5076570;28;19904;-58
2022/05/16 04:37:33;;;;;;;;;;;31.00;47.40;;;;;;5076672;28;19971;-58
2022/05/16 04:39:59;;;;;;;;;;;31.30;46.50;;;;;;5076499;28;19943;-58
2022/05/16 04:42:40;;;;;;;;;;;31.50;46.20;;;;;;5079101;28;19904;-59
2022/05/16 04:45:10;;;;;;;;;;;31.80;45.90;;;;;;5088458;28;19958;-58
2022/05/16 04:47:36;;;;;;;;;;;32.00;45.50;;;;;;5091955;28;19912;-58
2022/05/16 04:50:02;;;;;;;;;;;32.20;45.40;;;;;;5086506;28;19954;-58
2022/05/16 04:52:28;;;;;;;;;;;32.30;44.90;;;;;;5090662;28;20386;-58
2022/05/16 04:54:54;;;;;;;;;;;32.50;45.20;;;;;;5088383;28;19916;-58
2022/05/16 04:57:19;;;;;;;;;;;32.60;44.40;;;;;;5090023;28;19908;-58
2022/05/16 04:59:47;;;;;;;;;;;32.70;44.50;;;;;;5087348;28;19904;-58
2022/05/16 05:02:14;;;;;;;;;;;32.80;44.10;;;;;;5087290;28;19914;-58
2022/05/16 05:04:39;;;;;;;;;;;32.90;44.10;;;;;;5090086;28;20431;-58
2022/05/16 05:07:04;;;;;;;;;;;32.90;43.80;;;;;;5091390;28;19962;-58
2022/05/16 05:09:30;;;;;;;;;;;32.90;43.50;;;;;;5090833;28;19946;-58
2022/05/16 05:14:41;;;;;;;;;;;33.00;43.70;;;;;;5091097;28;20283;-58
2022/05/16 05:17:08;;;;;;;;;;;33.10;42.70;;;;;;5072434;28;20360;-59
2022/05/16 05:19:35;;;;;;;;;;;33.00;42.30;;;;;;5090275;28;19951;-58
2022/05/16 05:22:00;;;;;;;;;;;32.90;41.90;;;;;;5092972;28;19915;-58
2022/05/16 05:24:29;;;;;;;;;;;32.70;41.40;;;;;;5092773;28;19920;-58
2022/05/16 05:26:55;;;;;;;;;;;32.10;41.40;;;;;;5094246;28;19908;-58
2022/05/16 05:29:22;;;;;;;;;;;31.30;41.70;;;;;;5091978;28;19947;-59
2022/05/16 05:31:48;;;;;;;;;;;30.30;41.80;;;;;;5089143;28;19915;-58
2022/05/16 05:34:14;;;;;;;;;;;29.30;42.10;;;;;;5087691;28;19938;-58
2022/05/16 05:36:40;;;;;;;;;;;28.40;43.00;;;;;;5088784;28;19908;-58
2022/05/16 05:39:06;;;;;;;;;;;27.50;43.70;;;;;;5092613;28;19908;-58
2022/05/16 05:41:33;;;;;;;;;;;26.70;44.10;;;;;;5079952;28;19916;-58
2022/05/16 05:43:58;;;;;;;;;;;26.00;44.50;;;;;;5073583;28;19967;-58
2022/05/16 05:46:24;;;;;;;;;;;25.40;45.10;;;;;;5086861;28;19954;-58
2022/05/16 05:48:49;;;;;;;;;;;24.90;45.60;;;;;;5080496;28;19909;-57
2022/05/16 05:51:15;;;;;;;;;;;24.50;46.20;;;;;;5090973;28;19912;-58
2022/05/16 05:53:41;;;;;;;;;;;24.10;46.40;;;;;;5085838;28;19965;-59
2022/05/16 05:56:08;;;;;;;;;;;23.70;46.70;;;;;;5088678;28;19908;-58
2022/05/16 05:58:33;;;;;;;;;;;23.40;46.80;;;;;;5088209;28;19916;-58
2022/05/16 06:00:59;;;;;;;;;;;23.20;46.90;;;;;;5090498;28;20256;-58
2022/05/16 06:03:25;;;;;;;;;;;22.90;47.30;;;;;;5093225;28;19908;-58
2022/05/16 06:05:51;;;;;;;;;;;22.80;47.40;;;;;;5092767;28;19964;-58
2022/05/16 06:08:16;;;;;;;;;;;22.60;47.60;;;;;;5085410;28;20386;-58
2022/05/16 06:10:42;;;;;;;;;;;22.40;47.70;;;;;;5092633;28;19912;-58
2022/05/16 06:13:08;;;;;;;;;;;22.30;47.80;;;;;;5085025;28;19915;-58
2022/05/16 06:15:33;;;;;;;;;;;22.20;48.00;;;;;;5074800;28;19916;-57
2022/05/16 06:17:59;;;;;;;;;;;22.10;48.00;;;;;;5090784;28;19915;-58
2022/05/16 06:20:25;;;;;;;;;;;22.00;47.80;;;;;;5085308;28;19909;-57
2022/05/16 06:22:50;;;;;;;;;;;21.90;47.60;;;;;;5088054;28;20397;-58
2022/05/16 06:28:21;;;;;;;;;;;21.70;47.90;;;;;;5024234;28;19917;-57
2022/05/16 06:30:47;;;;;;;;;;;21.70;47.70;;;;;;5077477;28;19916;-57
2022/05/16 06:33:14;;;;;;;;;;;21.60;48.00;;;;;;5079568;28;20415;-59
2022/05/16 06:35:40;;;;;;;;;;;21.50;47.80;;;;;;5084341;28;19962;-58
2022/05/16 06:38:06;;;;;;;;;;;21.50;47.90;;;;;;5087625;28;20012;-59
2022/05/16 06:40:32;;;;;;;;;;;21.40;47.60;;;;;;5084174;28;19916;-58
2022/05/16 06:42:57;;;;;;;;;;;21.40;47.50;;;;;;5085767;28;19942;-59
2022/05/16 06:45:23;;;;;;;;;;;21.40;46.70;;;;;;5085439;28;19955;-59
2022/05/16 06:47:48;;;;;;;;;;;21.30;46.50;;;;;;5076319;28;20375;-59
2022/05/16 06:50:14;;;;;;;;;;;21.20;47.00;;;;;;5085178;28;20284;-59
2022/05/16 06:52:39;;;;;;;;;;;21.20;47.10;;;;;;5079483;28;19916;-59
2022/05/16 06:55:05;;;;;;;;;;;21.20;47.30;;;;;;5076533;28;19908;-59
2022/05/16 06:57:30;;;;;;;;;;;21.10;46.50;;;;;;5074137;28;20295;-59
2022/05/16 06:59:56;;;;;;;;;;;21.10;46.40;;;;;;5073643;28;20571;-58
2022/05/16 07:02:21;;;;;;;;;;;21.00;46.90;;;;;;5079650;28;19915;-59
2022/05/16 07:04:47;;;;;;;;;;;21.00;46.80;;;;;;5076645;28;19920;-59
2022/05/16 07:07:12;;;;;;;;;;;21.00;47.00;;;;;;5078625;28;19919;-58
2022/05/16 07:09:41;;;;;;;;;;;21.00;47.00;;;;;;5084055;28;19962;-58
2022/05/16 07:12:07;;;;;;;;;;;20.90;46.20;;;;;;5077207;28;19908;-58
2022/05/16 07:14:34;;;;;;;;;;;20.90;46.10;;;;;;5080278;28;20199;-58
2022/05/16 07:17:00;;;;;;;;;;;20.90;46.30;;;;;;5079029;28;19962;-58
2022/05/16 07:19:29;;;;;;;;;;;20.90;46.00;;;;;;5077513;28;19920;-58
2022/05/16 07:21:55;;;;;;;;;;;20.80;46.00;;;;;;5075288;28;20394;-58
2022/05/16 07:24:20;;;;;;;;;;;20.80;46.00;;;;;;5080954;28;19977;-58
2022/05/16 07:29:30;;;;;;;;;;;20.70;46.00;;;;;;5078667;28;19923;-58
2022/05/16 07:31:55;;;;;;;;;;;20.80;46.70;;;;;;5070675;28;20302;-58
2022/05/16 07:34:21;;;;;;;;;;;20.70;46.70;;;;;;5073313;28;20597;-58
2022/05/16 07:36:47;;;;;;;;;;;20.70;46.70;;;;;;5079090;28;19984;-58
2022/05/16 07:39:12;;;;;;;;;;;20.70;46.40;;;;;;5079723;28;19916;-57
2022/05/16 07:41:38;;;;;;;;;;;20.70;46.00;;;;;;5076929;28;19912;-58
2022/05/16 07:44:03;;;;;;;;;;;20.70;46.20;;;;;;5077307;28;19935;-58
2022/05/16 07:46:29;;;;;;;;;;;20.70;45.80;;;;;;5076271;28;19916;-58
2022/05/16 07:48:54;;;;;;;;;;;20.70;46.00;;;;;;5075528;28;20379;-58
2022/05/16 07:51:20;;;;;;;;;;;20.70;46.20;;;;;;5074426;28;20019;-57
2022/05/16 07:53:45;;;;;;;;;;;20.70;46.30;;;;;;5079837;28;20297;-60
2022/05/16 07:56:11;;;;;;;;;;;20.60;46.30;;;;;;5075561;28;19912;-56
2022/05/16 07:58:36;;;;;;;;;;;20.60;46.00;;;;;;5071735;28;19915;-56
2022/05/16 08:01:03;;;;;;;;;;;20.60;46.10;;;;;;5079901;28;20344;-59
2022/05/16 08:03:29;;;;;;;;;;;20.60;46.30;;;;;;5074708;28;19912;-56
2022/05/16 08:05:55;;;;;;;;;;;20.60;46.00;;;;;;5073158;28;19916;-58
2022/05/16 08:11:06;;;;;;;;;;;20.60;45.80;;;;;;5065444;28;19927;-58
2022/05/16 08:13:32;;;;;;;;;;;20.60;45.10;;;;;;5071109;28;19916;-60
2022/05/16 08:15:58;;;;;;;;;;;20.50;45.60;;;;;;5078049;28;19912;-59
2022/05/16 08:18:23;;;;;;;;;;;20.40;46.00;;;;;;5077885;28;19960;-59
2022/05/16 08:20:51;;;;;;;;;;;20.40;45.60;;;;;;5078601;28;19912;-59
2022/05/16 08:23:17;;;;;;;;;;;20.40;45.80;;;;;;5078675;28;19985;-58
2022/05/16 08:25:44;;;;;;;;;;;20.40;45.90;;;;;;5075492;28;19958;-59
2022/05/16 08:28:10;;;;;;;;;;;20.40;45.20;;;;;;5076882;28;19916;-59
2022/05/16 08:30:35;;;;;;;;;;;20.40;45.80;;;;;;5080329;28;19919;-59
2022/05/16 08:33:01;;;;;;;;;;;20.40;45.70;;;;;;5076894;28;19908;-60
2022/05/16 08:35:27;;;;;;;;;;;20.40;46.10;;;;;;5082076;28;19919;-59
2022/05/16 08:40:57;;;;;;;;;;;20.50;46.30;;;;;;5080274;28;19918;-60
2022/05/16 08:43:38;;;;;;;;;;;20.60;46.10;;;;;;5079295;28;19954;-59
2022/05/16 08:46:11;;;;;;;;;;;20.60;46.40;;;;;;5074843;28;20358;-59
2022/05/16 08:48:38;;;;;;;;;;;20.60;46.30;;;;;;5078249;28;19943;-59
2022/05/16 08:51:04;;;;;;;;;;;20.60;46.30;;;;;;5075625;28;19927;-59
2022/05/16 08:53:35;;;;;;;;;;;20.60;46.50;;;;;;5071808;28;19916;-59
2022/05/16 08:56:04;;;;;;;;;;;20.60;46.60;;;;;;5070734;28;20287;-59
2022/05/16 08:58:37;;;;;;;;;;;20.60;46.60;;;;;;5066255;28;19922;-59
2022/05/16 09:01:05;;;;;;;;;;;20.60;46.60;;;;;;5071763;28;20376;-59
2022/05/16 09:03:38;;;;;;;;;;;20.60;46.70;;;;;;5074528;28;20018;-58
2022/05/16 09:06:12;;;;;;;;;;;20.60;46.90;;;;;;5081269;28;19961;-60
2022/05/16 09:08:49;;;;;;;;;;;20.60;46.70;;;;;;5077101;28;19938;-59
2022/05/16 09:11:24;;;;;;;;;;;20.50;47.20;;;;;;5078354;28;20969;-58
2022/05/16 09:14:13;;;;;;;;;;;20.50;46.90;;;;;;5073391;28;20622;-59
2022/05/16 09:16:49;;;;;;;;;;;20.50;47.00;;;;;;5081227;28;19911;-58
2022/05/16 09:19:15;;;;;;;;;;;20.50;47.10;;;;;;5078310;28;19916;-60
2022/05/16 09:21:51;;;;;;;;;;;20.50;47.00;;;;;;5081748;28;19923;-60
2022/05/16 09:24:20;;;;;;;;;;;20.50;46.90;;;;;;5075389;28;19919;-60
2022/05/16 09:27:04;;;;;;;;;;;20.40;46.80;;;;;;5080467;28;19918;-59
2022/05/16 09:29:37;;;;;;;;;;;20.40;46.90;;;;;;5073799;28;19912;-59
2022/05/16 09:32:23;;;;;;;;;;;20.40;47.30;;;;;;5078924;28;19951;-59
2022/05/16 09:34:49;;;;;;;;;;;20.40;47.30;;;;;;5078764;28;19912;-59
2022/05/16 09:37:15;;;;;;;;;;;20.50;47.30;;;;;;5083381;28;19907;-59
2022/05/16 09:39:40;;;;;;;;;;;20.50;47.40;;;;;;5084769;28;19912;-59
2022/05/16 09:42:13;;;;;;;;;;;20.50;47.40;;;;;;5082202;28;19912;-58
2022/05/16 09:44:43;;;;;;;;;;;20.60;47.30;;;;;;5085165;28;20008;-59
2022/05/16 09:47:21;;;;;;;;;;;20.50;46.80;;;;;;5078939;28;19923;-58
2022/05/16 09:50:02;;;;;;;;;;;20.40;46.90;;;;;;5080690;28;19915;-58
2022/05/16 09:52:28;;;;;;;;;;;20.40;47.10;;;;;;5083462;28;19932;-59
2022/05/16 09:55:01;;;;;;;;;;;20.40;47.00;;;;;;5082827;28;19911;-59
2022/05/16 09:57:26;;;;;;;;;;;20.40;47.00;;;;;;5078951;28;19943;-60
2022/05/16 09:59:53;;;;;;;;;;;20.40;46.90;;;;;;5081838;28;20011;-59
2022/05/16 10:02:19;;;;;;;;;;;20.40;46.70;;;;;;5079288;28;19920;-59
2022/05/16 10:04:46;;;;;;;;;;;20.50;46.90;;;;;;5077867;28;19920;-59
2022/05/16 10:07:12;;;;;;;;;;;20.50;46.90;;;;;;5074842;28;19918;-59
2022/05/16 10:09:41;;;;;;;;;;;20.50;47.80;;;;;;5080190;28;19916;-59
2022/05/16 10:12:08;;;;;;;;;;;20.50;46.90;;;;;;5080813;28;19916;-59
2022/05/16 10:14:36;;;;;;;;;;;20.50;46.90;;;;;;5080315;28;19934;-59
2022/05/16 10:17:03;;;;;;;;;;;20.50;46.80;;;;;;5073033;28;20471;-59
2022/05/16 10:19:29;;;;;;;;;;;20.40;46.40;;;;;;5076940;28;19938;-59
2022/05/16 10:22:07;;;;;;;;;;;20.40;46.20;;;;;;5080101;28;19909;-59
2022/05/16 10:24:34;;;;;;;;;;;20.40;46.60;;;;;;5078537;28;26008;-59
2022/05/16 10:27:06;;;;;;;;;;;20.50;46.50;;;;;;5072932;28;19908;-59
2022/05/16 10:29:33;;;;;;;;;;;20.50;46.50;;;;;;5078212;28;19973;-60
2022/05/16 10:34:50;;;;;;;;;;;20.70;46.10;;;;;;5077408;28;19923;-59
2022/05/16 10:37:17;;;;;;;;;;;20.70;45.90;;;;;;5075940;28;19919;-59
2022/05/16 10:39:45;;;;;;;;;;;20.70;45.50;;;;;;5077590;28;19912;-59
2022/05/16 10:42:26;;;;;;;;;;;20.70;45.50;;;;;;5082106;28;19920;-59
2022/05/16 10:44:54;;;;;;;;;;;20.70;45.50;;;;;;5075547;28;19919;-59
2022/05/16 10:47:28;;;;;;;;;;;20.80;45.30;;;;;;5075575;28;19912;-59
2022/05/16 10:49:57;;;;;;;;;;;20.80;45.30;;;;;;5082692;28;19918;-59
2022/05/16 10:52:27;;;;;;;;;;;20.80;45.30;;;;;;5078861;28;19958;-59
2022/05/16 10:54:53;;;;;;;;;;;20.80;45.30;;;;;;5078398;28;19926;-59
2022/05/16 10:57:18;;;;;;;;;;;20.90;45.80;;;;;;5057254;28;20330;-60
2022/05/16 10:59:50;;;;;;;;;;;20.90;45.40;;;;;;5078454;28;19912;-59
2022/05/16 11:02:32;;;;;;;;;;;20.90;45.00;;;;;;5073244;28;20007;-58
2022/05/16 11:05:06;;;;;;;;;;;20.90;44.70;;;;;;5076347;28;19946;-59
2022/05/16 11:07:32;;;;;;;;;;;21.00;45.60;;;;;;5082730;28;19912;-59
2022/05/16 11:09:57;;;;;;;;;;;21.00;44.90;;;;;;5076422;28;19912;-60
2022/05/16 11:12:34;;;;;;;;;;;21.00;44.90;;;;;;5075606;28;19916;-59
2022/05/16 11:15:14;;;;;;;;;;;21.10;44.90;;;;;;5085740;28;19908;-59
2022/05/16 11:17:48;;;;;;;;;;;21.20;45.10;;;;;;5082337;28;19942;-60
2022/05/16 11:20:32;;;;;;;;;;;21.30;44.90;;;;;;5081846;28;19926;-60
2022/05/16 11:23:17;;;;;;;;;;;21.30;44.40;;;;;;5085096;28;20383;-59
2022/05/16 11:26:01;;;;;;;;;;;21.30;44.30;;;;;;5079059;28;19961;-59
2022/05/16 11:28:33;;;;;;;;;;;21.20;44.00;;;;;;5077619;28;20014;-59
2022/05/16 11:31:19;;;;;;;;;;;21.20;44.10;;;;;;5083114;28;19916;-59
2022/05/16 11:33:44;;;;;;;;;;;21.10;44.10;;;;;;5082671;28;19911;-59
2022/05/16 11:36:34;;;;;;;;;;;21.10;43.60;;;;;;5081893;28;19908;-60
2022/05/16 11:39:00;;;;;;;;;;;21.00;43.50;;;;;;5069726;28;20447;-60
2022/05/16 11:41:44;;;;;;;;;;;21.00;44.00;;;;;;5080802;28;20026;-58
2022/05/16 11:44:30;;;;;;;;;;;21.00;43.60;;;;;;5076085;28;20351;-60
2022/05/16 11:47:14;;;;;;;;;;;21.00;43.20;;;;;;5074492;28;20021;-60
2022/05/16 11:49:40;;;;;;;;;;;21.00;43.40;;;;;;5074914;28;19916;-59
2022/05/16 11:52:17;;;;;;;;;;;21.00;43.40;;;;;;5076027;28;21261;-60
2022/05/16 11:55:02;;;;;;;;;;;21.00;43.60;;;;;;5074717;28;20300;-59
2022/05/16 12:03:05;;;;;;;;;;;20.90;43.70;;;;;;5076644;28;20005;-59
2022/05/16 12:05:37;;;;;;;;;;;20.80;43.60;;;;;;5077346;28;19916;-60
2022/05/16 12:08:06;;;;;;;;;;;20.80;43.80;;;;;;5075024;28;20354;-60
2022/05/16 12:10:32;;;;;;;;;;;20.70;44.10;;;;;;5077549;28;20291;-59
2022/05/16 12:13:18;;;;;;;;;;;20.60;43.80;;;;;;5076988;28;22147;-60
2022/05/16 12:15:44;;;;;;;;;;;20.60;44.00;;;;;;5078916;28;20283;-60
2022/05/16 12:18:31;;;;;;;;;;;20.50;43.80;;;;;;5078489;28;20636;-60
2022/05/16 12:21:05;;;;;;;;;;;20.50;43.70;;;;;;5076647;28;19912;-60
2022/05/16 12:23:51;;;;;;;;;;;20.40;44.00;;;;;;5078553;28;19919;-60
2022/05/16 12:26:26;;;;;;;;;;;20.40;44.20;;;;;;5036983;28;20930;-60
2022/05/16 12:29:10;;;;;;;;;;;20.40;44.40;;;;;;5074428;28;19939;-60
2022/05/16 12:31:44;;;;;;;;;;;20.30;44.40;;;;;;5075742;28;19961;-59
2022/05/16 12:34:11;;;;;;;;;;;20.30;44.20;;;;;;5079792;28;19916;-59
2022/05/16 12:36:37;;;;;;;;;;;20.30;44.30;;;;;;5072698;28;19992;-60
2022/05/16 12:39:23;;;;;;;;;;;20.30;44.60;;;;;;5074357;28;20343;-60
2022/05/16 12:41:51;;;;;;;;;;;20.30;44.50;;;;;;5029332;28;19930;-60
2022/05/16 12:44:35;;;;;;;;;;;20.40;44.10;;;;;;5074991;28;19920;-58
2022/05/16 12:47:19;;;;;;;;;;;20.50;43.70;;;;;;5076031;28;20330;-59
2022/05/16 12:49:50;;;;;;;;;;;20.50;43.60;;;;;;5080333;28;20097;-59
2022/05/16 12:52:34;;;;;;;;;;;20.50;43.80;;;;;;5081133;28;19924;-59
2022/05/16 12:55:20;;;;;;;;;;;20.50;44.10;;;;;;5080149;28;19912;-59
2022/05/16 12:57:59;;;;;;;;;;;20.50;44.10;;;;;;5073884;28;19916;-58
2022/05/16 13:00:27;;;;;;;;;;;20.40;44.40;;;;;;5080488;28;19922;-59
2022/05/16 13:02:53;;;;;;;;;;;20.40;44.10;;;;;;5077618;28;19919;-59
2022/05/16 13:05:39;;;;;;;;;;;20.40;43.90;;;;;;5082670;28;20835;-59
2022/05/16 13:08:14;;;;;;;;;;;20.40;44.50;;;;;;5036897;28;20245;-59
2022/05/16 13:10:39;;;;;;;;;;;20.40;44.80;;;;;;5080651;28;19959;-59
2022/05/16 13:13:13;;;;;;;;;;;20.40;45.20;;;;;;5081472;28;20036;-58
2022/05/16 13:15:44;;;;;;;;;;;20.40;45.80;;;;;;5083663;28;20046;-59
2022/05/16 13:18:18;;;;;;;;;;;20.40;45.60;;;;;;5078828;28;20296;-58
2022/05/16 13:20:44;;;;;;;;;;;20.40;45.40;;;;;;5077163;28;19977;-58
2022/05/16 13:23:13;;;;;;;;;;;20.30;45.00;;;;;;5083680;28;19912;-59
2022/05/16 13:29:21;;;;;;;;;;;20.30;45.20;;;;;;5086088;28;19962;-59
2022/05/16 13:31:08;;;;;;;;;;;20.20;46.00;;;;;;5081909;28;19977;-59
2022/05/16 13:33:35;;;;;;;;;;;20.10;45.90;;;;;;5078872;28;19919;-59
2022/05/16 13:36:17;;;;;;;;;;;20.10;46.00;;;;;;5078041;28;19920;-59
2022/05/16 13:38:43;;;;;;;;;;;20.10;46.10;;;;;;5080892;28;20536;-60
2022/05/16 13:41:09;;;;;;;;;;;20.10;45.90;;;;;;5081825;28;19912;-58
2022/05/16 13:43:34;;;;;;;;;;;20.10;45.60;;;;;;5082877;28;19926;-58
2022/05/16 13:46:08;;;;;;;;;;;20.00;45.70;;;;;;5082796;28;20574;-59
2022/05/16 13:48:34;;;;;;;;;;;20.10;45.90;;;;;;5084306;28;19916;-59
2022/05/16 13:51:00;;;;;;;;;;;20.10;45.80;;;;;;5086585;28;19916;-57
2022/05/16 13:53:26;;;;;;;;;;;20.10;45.80;;;;;;5083792;28;19926;-58
2022/05/16 13:55:53;;;;;;;;;;;20.00;45.90;;;;;;5083464;28;20618;-57
2022/05/16 13:58:19;;;;;;;;;;;20.00;46.00;;;;;;5082028;28;19967;-58
2022/05/16 14:00:45;;;;;;;;;;;20.00;46.30;;;;;;5080971;28;19916;-61
2022/05/16 14:03:23;;;;;;;;;;;20.00;46.30;;;;;;5080445;28;19923;-58
2022/05/16 14:05:48;;;;;;;;;;;20.00;46.20;;;;;;5080257;28;19927;-59
2022/05/16 14:08:19;;;;;;;;;;;20.00;46.30;;;;;;5079829;28;19916;-60
2022/05/16 14:10:45;;;;;;;;;;;19.90;46.30;;;;;;5078741;28;19912;-60
2022/05/16 14:13:14;;;;;;;;;;;19.90;46.50;;;;;;5076376;28;19916;-60
2022/05/16 14:15:41;;;;;;;;;;;19.90;46.50;;;;;;5083106;28;19977;-60
2022/05/16 14:18:13;;;;;;;;;;;19.80;46.60;;;;;;5084250;28;19908;-60
2022/05/16 14:20:47;;;;;;;;;;;19.90;46.60;;;;;;5082408;28;19908;-61
2022/05/16 14:23:36;;;;;;;;;;;19.90;46.70;;;;;;5078931;28;20340;-60
2022/05/16 14:26:12;;;;;;;;;;;19.80;46.70;;;;;;5065243;28;19931;-60
2022/05/16 14:28:44;;;;;;;;;;;19.80;46.80;;;;;;5081064;28;20006;-60
2022/05/16 14:31:19;;;;;;;;;;;19.80;46.90;;;;;;5076097;28;19916;-60
2022/05/16 14:34:02;;;;;;;;;;;19.80;47.20;;;;;;5080916;28;19969;-60
2022/05/16 14:36:38;;;;;;;;;;;19.70;47.00;;;;;;5078042;28;19912;-60
2022/05/16 14:39:24;;;;;;;;;;;19.70;47.20;;;;;;5082027;28;19923;-60
2022/05/16 14:41:50;;;;;;;;;;;19.70;47.40;;;;;;5080258;28;19912;-58
2022/05/16 14:44:17;;;;;;;;;;;19.70;47.20;;;;;;5083476;28;20282;-59
2022/05/16 14:46:55;;;;;;;;;;;19.70;47.10;;;;;;5078281;28;21115;-59
2022/05/16 14:49:21;;;;;;;;;;;19.80;47.30;;;;;;5078403;28;19992;-59
2022/05/16 14:51:47;;;;;;;;;;;19.80;47.00;;;;;;5083648;28;20283;-60
2022/05/16 14:54:23;;;;;;;;;;;19.70;47.20;;;;;;5081393;28;20364;-57
2022/05/16 14:56:50;;;;;;;;;;;19.80;47.10;;;;;;5078723;28;19912;-59
2022/05/16 14:59:15;;;;;;;;;;;19.80;47.00;;;;;;5080392;28;19922;-60